Thermopolis, WY (82443)

2:49 AM MDT on October 25, 2014 (GMT -0600)
Worland Municipal | Change Station
CLOSE
Current Station
Airport
Location: Worland,
Elevation: 4226 ft
Nearby Weather Stations

Elev 4226 ft 43.97 °N, 107.95 °W | Updated 56 minutes ago

Clear
Clear
44 °F
Feels Like 39 °F
N
10
Wind Variable Wind from SSE

Today
High -- | Low -- °F
--% Chance of Precip.
Yesterday
High -- | Low -- °F
Precip. -- in
7:39 AM 6:13 PM
New Moon, 2% visible
Pressure 30.04 in
Visibility 10.0 miles
Clouds Clear
Windchill 39 °F
Dew Point 33 °F
Humidity 65%
Rainfall 0.00 in
Snow Depth Not available.
UV 0 out of 12
Pollen 2.70 out of 12
Air Quality Not available.
Flu Activity Sporadic
METAR KWRL 250753Z AUTO 15009KT 10SM CLR 07/01 A3011 RMK AO2 SLP173 T00670006

More Conditions Fewer Conditions

Pressure 30.04 in
Visibility 10.0 miles
Clouds Clear
Windchill 39 °F
Dew Point 33 °F
Humidity 65%
Rainfall 0.00 in
Snow Depth Not available.
UV 0 out of 12
Pollen 2.70 out of 12
Air Quality Not available.
Flu Activity Sporadic
METAR KWRL 250753Z AUTO 15009KT 10SM CLR 07/01 A3011 RMK AO2 SLP173 T00670006

More Conditions Fewer Conditions

10-Day Weather Forecast

Almanac

Astronomy

Oct. 25, 2014 Rise Set
Actual Time 7:39 AM MDT 6:13 PM MDT
Civil Twilight 7:10 AM MDT 6:43 PM MDT
Nautical Twilight 6:36 AM MDT 7:16 PM MDT
Astronomical Twilight 6:03 AM MDT 7:49 PM MDT
Moon 9:24 AM MDT 7:36 PM MDT
Length of Visible Light 11h 32m
Length of Day
10h 33m
Tomorrow will be 2m 46s shorter.
New Moon, 2% of the Moon is Illuminated
Today
New Moon
Oct 30
First Quarter
Nov 6
Full
Nov 14
Last Quarter
Nov 22
New

Today's Extremes

State Highs State Lows

Community

WunderPhotos

Upload Photos

1,764,791 photos uploaded!

Nearby

Snow Depth

Station Depth Elevation
Townsend Creek 0 in 8700 ft
Gunsight Pass 0 in 9820 ft
Big Sandy Opening 1 in 9080 ft
Togwotee Pass 0 in 7980 ft
Kendall R.S. 1 in 7740 ft

Earthquake Activity

City Distance Mag. Time & Date
No recent earthquake activity has been reported nearby.
Minimum magnitude displayed is 2.5.

Coastal Water Temperatures

Place Temperature
No Stations Reporting

Nearby Weather Stations